This is the latest recevied weather packets stored in our database for station/object HS5SQI-2. If no packets are shown the sender has not sent any weather packets the latest 10 day(s).
| Time | Temp. | Humidity | Pressure | Rain* | Wind** | Luminosity | Snow |
|---|---|---|---|---|---|---|---|
| 1777889201 | 31.11° C | 76% | 1005 hPa | - | - | 0 W/m² | - |
| 1777888578 | 31.11° C | 75% | 1006 hPa | - | - | 0 W/m² | - |
| 1777887956 | 30.56° C | 79% | 1006 hPa | - | - | 0 W/m² | - |
| 1777887334 | 31.11° C | 75% | 1006 hPa | - | - | 0 W/m² | - |
| 1777886712 | 31.11° C | 75% | 1006 hPa | - | - | 0 W/m² | - |
| 1777886090 | 30.56° C | 74% | 1006 hPa | - | - | 0 W/m² | - |
| 1777885468 | 31.11° C | 75% | 1005 hPa | - | - | 0 W/m² | - |
| 1777884846 | 31.67° C | 74% | 1004 hPa | - | - | 0 W/m² | - |
| 1777884224 | 31.11° C | 74% | 1004 hPa | - | - | 0 W/m² | - |
| 1777883602 | 31.67° C | 73% | 1005 hPa | - | - | 0 W/m² | - |
| 1777882980 | 30.56° C | 76% | 1005 hPa | - | - | 0 W/m² | - |
| 1777882358 | 30.56° C | 74% | 1006 hPa | - | - | 0 W/m² | - |
| 1777881736 | 31.11° C | 73% | 1006 hPa | - | - | 0 W/m² | - |
| 1777881114 | 31.67° C | 71% | 1007 hPa | - | - | 0 W/m² | - |
| 1777880492 | 31.67° C | 69% | 1007 hPa | - | - | 0 W/m² | - |
| 1777879870 | 33.33° C | 61% | 1007 hPa | - | - | 0 W/m² | - |
| 1777879248 | 34.44° C | 60% | 1005 hPa | - | - | 0 W/m² | - |
| 1777878626 | 35.56° C | 60% | 1005 hPa | - | - | 0 W/m² | - |
| 1777878004 | 37.22° C | 55% | 1005 hPa | - | - | 0 W/m² | - |
| 1777877382 | 37.78° C | 54% | 1005 hPa | - | - | 0 W/m² | - |
| 1777876760 | 38.33° C | 53% | 1005 hPa | - | - | 0 W/m² | - |
| 1777876138 | 38.89° C | 54% | 1005 hPa | - | - | 0 W/m² | - |
| 1777875516 | 37.78° C | 55% | 1006 hPa | - | - | 0 W/m² | - |
| 1777874894 | 37.78° C | 55% | 1006 hPa | - | - | 0 W/m² | - |
| 1777874272 | 37.22° C | 57% | 1006 hPa | - | - | 0 W/m² | - |
* Rain since midnight (hover to see other rain measurements)
** Current wind speed in m/s (hover to see current wind gust speed)